Time;durP1;ratioP1;P1;durP2;ratioP2;P2;SDS_P1;SDS_P2;PMS_P1;PMS_P2;Temp;Humidity;BMP_temperature;BMP_pressure;BME280_temperature;BME280_humidity;BME280_pressure;Samples;Min_cycle;Max_cycle;Signal;HPM_P1;HPM_P2
2022/03/26 00:00:09;;;;;;;;;;;5.60;57.00;;;;;;4939137;29;19985;-76
2022/03/26 00:02:36;;;;;;;;;;;5.50;57.10;;;;;;4955826;29;19927;-76
2022/03/26 00:05:04;;;;;;;;;;;5.40;57.30;;;;;;4932053;29;19930;-78
2022/03/26 00:07:30;;;;;;;;;;;5.40;57.00;;;;;;4923516;29;19977;-78
2022/03/26 00:09:57;;;;;;;;;;;5.40;57.00;;;;;;4935794;29;19923;-78
2022/03/26 00:12:25;;;;;;;;;;;5.40;57.00;;;;;;4932291;29;20363;-75
2022/03/26 00:14:52;;;;;;;;;;;5.40;57.30;;;;;;4945086;28;20029;-75
2022/03/26 00:17:19;;;;;;;;;;;5.30;57.70;;;;;;4928611;29;20383;-77
2022/03/26 00:19:46;;;;;;;;;;;5.30;58.20;;;;;;4936186;29;19922;-75
2022/03/26 00:22:13;;;;;;;;;;;5.30;58.60;;;;;;4939361;29;20390;-78
2022/03/26 00:24:39;;;;;;;;;;;5.20;58.30;;;;;;4941089;29;19985;-77
2022/03/26 00:27:06;;;;;;;;;;;5.20;58.70;;;;;;4956118;28;19985;-76
2022/03/26 00:29:33;;;;;;;;;;;5.20;58.80;;;;;;4932475;29;19922;-78
2022/03/26 00:32:00;;;;;;;;;;;5.10;59.20;;;;;;4935493;29;19972;-77
2022/03/26 00:34:27;;;;;;;;;;;5.10;59.00;;;;;;4933738;29;19926;-79
2022/03/26 00:36:53;;;;;;;;;;;5.10;58.50;;;;;;4939654;29;19923;-75
2022/03/26 00:39:20;;;;;;;;;;;5.10;58.80;;;;;;4944132;29;19923;-77
2022/03/26 00:41:47;;;;;;;;;;;5.10;58.50;;;;;;4943336;28;19970;-77
2022/03/26 00:44:14;;;;;;;;;;;5.10;58.80;;;;;;4935914;29;19930;-77
2022/03/26 00:46:41;;;;;;;;;;;5.10;58.60;;;;;;4946639;28;19922;-77
2022/03/26 00:49:08;;;;;;;;;;;5.10;57.90;;;;;;4937677;28;19930;-77
2022/03/26 00:51:35;;;;;;;;;;;5.10;56.50;;;;;;4955430;28;20396;-76
2022/03/26 00:54:02;;;;;;;;;;;5.20;55.60;;;;;;4955221;28;19922;-78
2022/03/26 00:56:29;;;;;;;;;;;5.20;56.00;;;;;;4938642;29;19930;-78
2022/03/26 00:58:56;;;;;;;;;;;5.20;56.30;;;;;;4953878;29;19926;-77
2022/03/26 01:01:23;;;;;;;;;;;5.20;57.00;;;;;;4937032;29;19922;-78
2022/03/26 01:03:50;;;;;;;;;;;5.20;57.20;;;;;;4918816;29;20395;-76
2022/03/26 01:06:18;;;;;;;;;;;5.10;57.60;;;;;;4934908;29;19923;-77
2022/03/26 01:08:45;;;;;;;;;;;5.10;56.30;;;;;;4945333;28;20371;-77
2022/03/26 01:11:12;;;;;;;;;;;5.20;53.60;;;;;;4929740;29;19975;-78
2022/03/26 01:13:39;;;;;;;;;;;5.40;52.00;;;;;;4934900;29;19926;-78
2022/03/26 01:16:06;;;;;;;;;;;5.60;49.70;;;;;;4935023;29;19989;-76
2022/03/26 01:18:36;;;;;;;;;;;6.00;48.00;;;;;;4936078;29;19922;-77
2022/03/26 01:21:03;;;;;;;;;;;6.30;46.70;;;;;;4928831;29;20007;-78
2022/03/26 01:23:30;;;;;;;;;;;6.60;45.70;;;;;;4931473;29;20413;-78
2022/03/26 01:25:58;;;;;;;;;;;6.90;44.50;;;;;;4936436;29;19978;-75
2022/03/26 01:28:26;;;;;;;;;;;7.10;44.00;;;;;;4927988;29;20447;-75
2022/03/26 01:30:53;;;;;;;;;;;7.20;43.70;;;;;;4926749;29;19950;-77
2022/03/26 01:33:19;;;;;;;;;;;7.30;43.00;;;;;;4925713;29;19931;-77
2022/03/26 01:35:46;;;;;;;;;;;7.50;42.00;;;;;;4933736;29;19993;-75
2022/03/26 01:38:13;;;;;;;;;;;7.70;41.10;;;;;;4935648;29;19978;-78
2022/03/26 01:40:40;;;;;;;;;;;8.00;40.40;;;;;;4934929;29;19927;-76
2022/03/26 01:43:06;;;;;;;;;;;8.30;39.60;;;;;;4937649;29;19954;-75
2022/03/26 01:45:33;;;;;;;;;;;8.60;38.80;;;;;;4938287;29;20362;-75
2022/03/26 01:48:00;;;;;;;;;;;8.80;38.20;;;;;;4934938;29;19982;-78
2022/03/26 01:50:29;;;;;;;;;;;9.00;37.20;;;;;;4911615;29;22248;-75
2022/03/26 01:52:57;;;;;;;;;;;9.30;36.30;;;;;;4926944;29;20442;-77
2022/03/26 01:55:24;;;;;;;;;;;9.50;35.90;;;;;;4935027;29;19930;-77
2022/03/26 01:57:53;;;;;;;;;;;9.60;35.50;;;;;;4937054;29;19938;-76
2022/03/26 02:00:20;;;;;;;;;;;9.70;35.60;;;;;;4938809;29;20372;-77
2022/03/26 02:02:46;;;;;;;;;;;9.90;35.10;;;;;;4936645;28;19938;-78
2022/03/26 02:05:15;;;;;;;;;;;10.00;34.50;;;;;;4941799;29;19926;-78
2022/03/26 02:07:43;;;;;;;;;;;10.10;34.20;;;;;;4941148;29;20370;-78
2022/03/26 02:10:11;;;;;;;;;;;10.10;34.90;;;;;;4952844;28;19986;-76
2022/03/26 02:12:38;;;;;;;;;;;10.10;34.10;;;;;;4931802;29;19933;-78
2022/03/26 02:15:06;;;;;;;;;;;10.10;34.40;;;;;;4954454;28;19977;-78
2022/03/26 02:17:34;;;;;;;;;;;10.10;34.30;;;;;;4934295;29;19974;-76
2022/03/26 02:20:01;;;;;;;;;;;10.10;34.00;;;;;;4945283;28;19962;-76
2022/03/26 02:22:28;;;;;;;;;;;10.10;34.20;;;;;;4947311;28;20373;-78
2022/03/26 02:24:55;;;;;;;;;;;10.10;33.90;;;;;;4956770;28;19930;-78
2022/03/26 02:27:22;;;;;;;;;;;10.10;34.20;;;;;;4954063;29;20502;-79
2022/03/26 02:29:50;;;;;;;;;;;10.10;34.20;;;;;;4931082;29;19926;-77
2022/03/26 02:32:24;;;;;;;;;;;10.10;34.40;;;;;;4956981;28;19937;-77
2022/03/26 02:34:52;;;;;;;;;;;10.10;34.30;;;;;;4937190;29;20448;-78
2022/03/26 02:37:29;;;;;;;;;;;10.00;34.20;;;;;;4938625;29;19926;-78
2022/03/26 02:39:56;;;;;;;;;;;10.00;34.30;;;;;;4940907;29;20735;-77
2022/03/26 02:42:23;;;;;;;;;;;10.10;34.00;;;;;;4930223;29;19926;-78
2022/03/26 02:44:50;;;;;;;;;;;10.10;33.80;;;;;;4941232;29;20442;-75
2022/03/26 02:47:17;;;;;;;;;;;10.20;34.00;;;;;;4939002;28;19930;-78
2022/03/26 02:49:44;;;;;;;;;;;10.20;33.50;;;;;;4945359;29;19926;-78
2022/03/26 02:52:10;;;;;;;;;;;10.20;33.30;;;;;;4957257;28;19927;-77
2022/03/26 02:54:37;;;;;;;;;;;10.30;33.60;;;;;;4952806;28;19980;-78
2022/03/26 02:57:04;;;;;;;;;;;10.30;33.20;;;;;;4934418;29;19934;-78
2022/03/26 02:59:31;;;;;;;;;;;10.30;33.70;;;;;;4950807;28;19958;-75
2022/03/26 03:01:58;;;;;;;;;;;10.30;33.30;;;;;;4957797;29;19956;-77
2022/03/26 03:04:25;;;;;;;;;;;10.20;33.50;;;;;;4935653;29;20367;-78
2022/03/26 03:06:52;;;;;;;;;;;10.20;33.50;;;;;;4956860;28;20005;-78
2022/03/26 03:09:19;;;;;;;;;;;10.20;33.60;;;;;;4955735;28;19946;-78
2022/03/26 03:11:46;;;;;;;;;;;10.20;33.60;;;;;;4952795;28;19962;-78
2022/03/26 03:14:13;;;;;;;;;;;10.20;33.60;;;;;;4937096;29;19926;-78
2022/03/26 03:16:39;;;;;;;;;;;10.10;33.80;;;;;;4934824;28;19930;-78
2022/03/26 03:19:06;;;;;;;;;;;10.20;33.50;;;;;;4950351;28;19978;-77
2022/03/26 03:21:33;;;;;;;;;;;10.20;33.50;;;;;;4945822;28;19974;-78
2022/03/26 03:24:00;;;;;;;;;;;10.30;33.40;;;;;;4939995;29;19982;-76
2022/03/26 03:26:27;;;;;;;;;;;10.20;33.40;;;;;;4939512;29;20264;-77
2022/03/26 03:28:53;;;;;;;;;;;10.20;33.50;;;;;;4953251;29;19958;-78
2022/03/26 03:31:20;;;;;;;;;;;10.20;33.50;;;;;;4937107;28;19953;-77
2022/03/26 03:33:47;;;;;;;;;;;10.20;33.20;;;;;;4954942;28;20327;-77
2022/03/26 03:36:17;;;;;;;;;;;10.20;33.50;;;;;;4927231;29;19974;-77
2022/03/26 03:38:44;;;;;;;;;;;10.10;34.20;;;;;;4933775;29;19931;-78
2022/03/26 03:41:11;;;;;;;;;;;10.20;33.40;;;;;;4950777;29;19973;-75
2022/03/26 03:43:37;;;;;;;;;;;10.20;33.40;;;;;;4939453;29;19930;-76
2022/03/26 03:46:04;;;;;;;;;;;10.20;33.60;;;;;;4936687;29;20379;-76
2022/03/26 03:48:31;;;;;;;;;;;10.20;33.80;;;;;;4939112;29;19969;-78
2022/03/26 03:50:58;;;;;;;;;;;10.10;33.50;;;;;;4934170;29;20319;-77
2022/03/26 03:53:25;;;;;;;;;;;10.10;33.50;;;;;;4932148;29;19931;-78
2022/03/26 03:55:51;;;;;;;;;;;10.20;33.20;;;;;;4954279;29;19927;-77
2022/03/26 03:58:18;;;;;;;;;;;10.20;33.30;;;;;;4939206;29;19933;-79
2022/03/26 04:00:47;;;;;;;;;;;10.30;33.00;;;;;;4939802;29;19980;-77
2022/03/26 04:03:16;;;;;;;;;;;10.30;33.40;;;;;;4955369;28;20273;-75
2022/03/26 04:05:43;;;;;;;;;;;10.30;33.00;;;;;;4954235;28;20335;-78
2022/03/26 04:08:10;;;;;;;;;;;10.30;33.10;;;;;;4936819;29;19978;-78
2022/03/26 04:10:37;;;;;;;;;;;10.30;33.30;;;;;;4921357;29;19963;-75
2022/03/26 04:13:04;;;;;;;;;;;10.30;32.80;;;;;;4933135;29;19938;-77
2022/03/26 04:15:31;;;;;;;;;;;10.30;32.80;;;;;;4937429;29;19964;-75
2022/03/26 04:17:57;;;;;;;;;;;10.40;32.70;;;;;;4939651;29;20314;-77
2022/03/26 04:20:24;;;;;;;;;;;10.30;33.00;;;;;;4934950;29;19938;-79
2022/03/26 04:22:51;;;;;;;;;;;10.30;32.80;;;;;;4938491;29;19985;-77
2022/03/26 04:25:18;;;;;;;;;;;10.30;32.80;;;;;;4929475;29;19926;-78
2022/03/26 04:27:46;;;;;;;;;;;10.30;33.30;;;;;;4937303;28;19930;-78
2022/03/26 04:30:13;;;;;;;;;;;10.20;33.50;;;;;;4938726;29;19927;-79
2022/03/26 04:32:40;;;;;;;;;;;10.10;33.30;;;;;;4955561;28;19930;-76
2022/03/26 04:35:07;;;;;;;;;;;10.10;33.50;;;;;;4932263;29;19978;-75
2022/03/26 04:37:34;;;;;;;;;;;10.10;33.80;;;;;;4954346;28;19990;-76
2022/03/26 04:40:05;;;;;;;;;;;10.10;33.30;;;;;;4940922;28;19926;-78
2022/03/26 04:42:32;;;;;;;;;;;10.10;33.30;;;;;;4955461;28;20031;-79
2022/03/26 04:44:59;;;;;;;;;;;10.00;33.70;;;;;;4935324;29;20401;-76
2022/03/26 04:47:26;;;;;;;;;;;10.00;33.90;;;;;;4938214;29;19931;-76
2022/03/26 04:49:52;;;;;;;;;;;9.90;33.80;;;;;;4938207;28;19973;-78
2022/03/26 04:52:19;;;;;;;;;;;9.90;33.90;;;;;;4938341;29;20438;-76
2022/03/26 04:54:48;;;;;;;;;;;9.90;33.60;;;;;;4938032;28;20036;-77
2022/03/26 04:57:17;;;;;;;;;;;10.00;33.60;;;;;;4935072;29;19938;-77
2022/03/26 04:59:44;;;;;;;;;;;10.00;33.80;;;;;;4952596;28;19978;-76
2022/03/26 05:02:11;;;;;;;;;;;9.90;33.70;;;;;;4937681;29;19935;-78
2022/03/26 05:04:37;;;;;;;;;;;9.90;34.10;;;;;;4937991;29;20017;-79
2022/03/26 05:07:45;;;;;;;;;;;9.90;33.90;;;;;;4934703;28;19939;-78
2022/03/26 05:09:51;;;;;;;;;;;9.90;34.20;;;;;;4951701;28;19978;-78
2022/03/26 05:12:19;;;;;;;;;;;9.80;33.90;;;;;;4937600;28;19982;-76
2022/03/26 05:14:45;;;;;;;;;;;9.90;34.20;;;;;;4933493;28;20041;-78
2022/03/26 05:17:13;;;;;;;;;;;9.90;34.30;;;;;;4938006;29;19962;-78
2022/03/26 05:19:39;;;;;;;;;;;9.90;34.30;;;;;;4945975;28;19974;-78
2022/03/26 05:22:06;;;;;;;;;;;9.80;34.50;;;;;;4942427;29;19978;-78
2022/03/26 05:24:33;;;;;;;;;;;9.80;34.40;;;;;;4939741;29;19926;-78
2022/03/26 05:27:00;;;;;;;;;;;9.70;34.80;;;;;;4941652;28;20323;-76
2022/03/26 05:29:29;;;;;;;;;;;9.80;34.40;;;;;;4941551;29;19926;-79
2022/03/26 05:31:56;;;;;;;;;;;9.70;34.80;;;;;;4942156;29;19927;-78
2022/03/26 05:34:23;;;;;;;;;;;9.70;34.60;;;;;;4958776;28;19932;-77
2022/03/26 05:36:50;;;;;;;;;;;9.70;34.90;;;;;;4941735;28;19927;-76
2022/03/26 05:39:17;;;;;;;;;;;9.70;34.80;;;;;;4937213;29;19982;-77
2022/03/26 05:41:44;;;;;;;;;;;9.70;34.80;;;;;;4957739;28;19930;-77
2022/03/26 05:44:10;;;;;;;;;;;9.70;34.90;;;;;;4940052;29;19930;-77
2022/03/26 05:46:37;;;;;;;;;;;9.70;34.90;;;;;;4950257;28;20438;-76
2022/03/26 05:49:04;;;;;;;;;;;9.60;35.20;;;;;;4942014;28;19934;-79
2022/03/26 05:51:31;;;;;;;;;;;9.60;35.30;;;;;;4941458;29;19942;-76
2022/03/26 05:53:57;;;;;;;;;;;9.60;35.30;;;;;;4947191;28;19954;-75
2022/03/26 05:56:24;;;;;;;;;;;9.60;35.60;;;;;;4942295;29;20371;-75
2022/03/26 05:58:51;;;;;;;;;;;9.60;35.00;;;;;;4941279;29;20294;-77
2022/03/26 06:01:18;;;;;;;;;;;9.70;35.00;;;;;;4941956;29;19926;-76
2022/03/26 06:03:45;;;;;;;;;;;9.70;34.90;;;;;;4935422;29;19990;-77
2022/03/26 06:06:12;;;;;;;;;;;9.80;34.80;;;;;;4928418;29;19975;-77
2022/03/26 06:08:38;;;;;;;;;;;9.80;34.50;;;;;;4931466;29;19927;-79
2022/03/26 06:11:05;;;;;;;;;;;9.80;34.70;;;;;;4935068;29;19990;-75
2022/03/26 06:13:32;;;;;;;;;;;9.90;35.00;;;;;;4937979;29;20343;-78
2022/03/26 06:15:59;;;;;;;;;;;10.00;34.30;;;;;;4933396;29;19973;-78
2022/03/26 06:18:25;;;;;;;;;;;10.00;33.90;;;;;;4930351;29;19942;-77
2022/03/26 06:20:52;;;;;;;;;;;10.10;34.20;;;;;;4937989;29;19927;-76
2022/03/26 06:23:19;;;;;;;;;;;10.10;34.10;;;;;;4937745;29;19962;-76
2022/03/26 06:25:46;;;;;;;;;;;10.10;34.10;;;;;;4938769;29;19930;-78
2022/03/26 06:28:13;;;;;;;;;;;10.10;34.20;;;;;;4937460;29;19927;-78
2022/03/26 06:30:40;;;;;;;;;;;10.20;34.40;;;;;;4940316;29;19927;-76
2022/03/26 06:33:07;;;;;;;;;;;10.20;34.00;;;;;;4932868;29;20025;-78
2022/03/26 06:35:33;;;;;;;;;;;10.30;33.50;;;;;;4932891;29;19974;-78
2022/03/26 06:38:00;;;;;;;;;;;10.40;33.50;;;;;;4938030;29;20387;-77
2022/03/26 06:40:27;;;;;;;;;;;10.40;33.40;;;;;;4925781;29;20372;-78
2022/03/26 06:42:54;;;;;;;;;;;10.50;33.40;;;;;;4933403;29;19931;-78
2022/03/26 06:45:21;;;;;;;;;;;10.60;32.90;;;;;;4934710;29;19935;-76
2022/03/26 06:47:48;;;;;;;;;;;10.60;33.20;;;;;;4929474;29;19927;-79
2022/03/26 06:50:14;;;;;;;;;;;10.60;33.90;;;;;;4934077;29;19982;-77
2022/03/26 06:52:41;;;;;;;;;;;10.60;33.80;;;;;;4928637;29;19990;-78
2022/03/26 06:55:08;;;;;;;;;;;10.60;33.50;;;;;;4934061;29;19927;-78
2022/03/26 06:57:36;;;;;;;;;;;10.70;33.40;;;;;;4932759;29;19927;-76
2022/03/26 07:00:03;;;;;;;;;;;10.80;33.50;;;;;;4925643;29;19931;-78
2022/03/26 07:02:30;;;;;;;;;;;10.80;33.40;;;;;;4930542;29;19955;-75
2022/03/26 07:04:57;;;;;;;;;;;10.90;33.40;;;;;;4944830;29;19926;-78
2022/03/26 07:07:24;;;;;;;;;;;11.00;32.60;;;;;;4928731;29;20294;-76
2022/03/26 07:09:51;;;;;;;;;;;11.10;32.50;;;;;;4951452;29;19931;-78
2022/03/26 07:12:18;;;;;;;;;;;11.20;32.90;;;;;;4939038;29;19930;-78
2022/03/26 07:14:45;;;;;;;;;;;11.30;32.70;;;;;;4938080;28;19930;-78
2022/03/26 07:17:12;;;;;;;;;;;11.40;32.40;;;;;;4946138;29;19926;-78
2022/03/26 07:19:39;;;;;;;;;;;11.50;32.50;;;;;;4941207;29;20389;-76
2022/03/26 07:22:06;;;;;;;;;;;11.70;31.80;;;;;;4937316;29;20387;-77
2022/03/26 07:24:32;;;;;;;;;;;11.80;31.70;;;;;;4934845;29;19981;-78
2022/03/26 07:26:59;;;;;;;;;;;11.80;31.20;;;;;;4936794;29;19931;-78
2022/03/26 07:29:26;;;;;;;;;;;12.00;31.40;;;;;;4929904;29;19978;-78
2022/03/26 07:31:54;;;;;;;;;;;12.10;30.50;;;;;;4950984;28;19974;-78
2022/03/26 07:34:22;;;;;;;;;;;12.20;30.70;;;;;;4945054;28;19930;-78
2022/03/26 07:36:49;;;;;;;;;;;12.30;30.70;;;;;;4939275;28;20017;-78
2022/03/26 07:39:16;;;;;;;;;;;12.50;30.50;;;;;;4957273;28;20409;-78
2022/03/26 07:41:43;;;;;;;;;;;12.70;30.90;;;;;;4939206;29;19926;-79
2022/03/26 07:44:10;;;;;;;;;;;12.70;30.00;;;;;;4936444;28;19974;-79
2022/03/26 07:46:36;;;;;;;;;;;12.90;29.90;;;;;;4927953;29;20442;-75
2022/03/26 07:49:05;;;;;;;;;;;13.00;29.70;;;;;;4929955;29;19974;-78
2022/03/26 07:51:31;;;;;;;;;;;13.00;29.80;;;;;;4945654;29;19930;-79
2022/03/26 07:53:58;;;;;;;;;;;13.20;29.70;;;;;;4937157;29;19926;-77
2022/03/26 07:56:25;;;;;;;;;;;13.30;29.50;;;;;;4946515;28;19926;-79
2022/03/26 07:58:52;;;;;;;;;;;13.40;29.50;;;;;;4935507;29;19927;-80
2022/03/26 08:01:19;;;;;;;;;;;13.40;29.80;;;;;;4936546;29;20379;-76
2022/03/26 08:03:46;;;;;;;;;;;13.60;29.50;;;;;;4928562;29;19973;-79
2022/03/26 08:06:13;;;;;;;;;;;13.70;29.20;;;;;;4933648;29;20314;-79
2022/03/26 08:08:40;;;;;;;;;;;13.90;28.60;;;;;;4934616;29;19931;-77
2022/03/26 08:11:07;;;;;;;;;;;14.00;29.00;;;;;;4942074;28;19935;-78
2022/03/26 08:13:34;;;;;;;;;;;14.20;28.20;;;;;;4945436;29;20391;-77
2022/03/26 08:16:01;;;;;;;;;;;14.30;28.50;;;;;;4936922;29;19981;-76
2022/03/26 08:18:27;;;;;;;;;;;14.40;28.00;;;;;;4943077;29;19974;-78
2022/03/26 08:20:54;;;;;;;;;;;14.50;27.60;;;;;;4942380;29;20276;-79
2022/03/26 08:23:21;;;;;;;;;;;14.60;27.70;;;;;;4946363;29;19958;-79
2022/03/26 08:28:34;;;;;;;;;;;14.90;28.30;;;;;;4945590;29;20371;-79
2022/03/26 08:31:00;;;;;;;;;;;15.10;28.00;;;;;;4954758;28;19926;-79
2022/03/26 08:33:27;;;;;;;;;;;15.30;28.10;;;;;;4935274;29;19986;-79
2022/03/26 08:35:54;;;;;;;;;;;15.40;26.90;;;;;;4948784;29;19958;-79
2022/03/26 08:38:21;;;;;;;;;;;15.50;26.70;;;;;;4938653;28;19934;-78
2022/03/26 08:40:48;;;;;;;;;;;15.50;26.90;;;;;;4938855;29;19926;-79
2022/03/26 08:43:15;;;;;;;;;;;15.60;27.40;;;;;;4938270;29;19966;-79
2022/03/26 08:45:42;;;;;;;;;;;15.80;26.60;;;;;;4944109;28;19927;-76
2022/03/26 08:48:09;;;;;;;;;;;15.90;26.60;;;;;;4938499;29;19951;-80
2022/03/26 08:50:36;;;;;;;;;;;16.00;27.00;;;;;;4922439;29;19927;-79
2022/03/26 08:53:03;;;;;;;;;;;16.00;26.40;;;;;;4934619;29;19978;-77
2022/03/26 08:55:29;;;;;;;;;;;16.20;26.80;;;;;;4927284;29;19931;-80
2022/03/26 08:57:57;;;;;;;;;;;16.30;27.20;;;;;;4936135;29;19930;-78
2022/03/26 09:00:26;;;;;;;;;;;16.50;26.90;;;;;;4947454;29;20022;-80
2022/03/26 09:02:53;;;;;;;;;;;16.60;26.00;;;;;;4928691;29;19962;-79
2022/03/26 09:05:21;;;;;;;;;;;16.70;26.60;;;;;;4932890;29;19977;-78
2022/03/26 09:07:48;;;;;;;;;;;16.90;26.90;;;;;;4929809;29;20330;-80
2022/03/26 09:10:15;;;;;;;;;;;16.90;27.10;;;;;;4941127;29;19938;-79
2022/03/26 09:12:42;;;;;;;;;;;17.10;27.20;;;;;;4930744;29;19981;-78
2022/03/26 09:15:09;;;;;;;;;;;17.30;25.50;;;;;;4926322;29;20064;-78
2022/03/26 09:17:36;;;;;;;;;;;17.30;24.90;;;;;;4937518;29;19926;-77
2022/03/26 09:20:04;;;;;;;;;;;17.50;24.50;;;;;;4954869;28;19927;-79
2022/03/26 09:22:31;;;;;;;;;;;17.60;24.50;;;;;;4931296;29;19948;-78
2022/03/26 09:24:59;;;;;;;;;;;17.70;24.60;;;;;;4938150;29;19981;-77
2022/03/26 09:27:26;;;;;;;;;;;17.70;24.60;;;;;;4938300;29;20009;-78
2022/03/26 09:29:52;;;;;;;;;;;17.80;23.80;;;;;;4954366;28;19926;-77
2022/03/26 09:32:20;;;;;;;;;;;17.90;23.50;;;;;;4928063;29;19937;-77
2022/03/26 09:34:48;;;;;;;;;;;18.00;24.30;;;;;;4933597;29;19927;-77
2022/03/26 09:37:16;;;;;;;;;;;18.00;24.70;;;;;;4934128;29;20395;-78
2022/03/26 09:39:43;;;;;;;;;;;18.20;24.20;;;;;;4937935;29;20289;-77
2022/03/26 09:42:11;;;;;;;;;;;18.20;24.60;;;;;;4939586;29;20035;-77
2022/03/26 09:44:38;;;;;;;;;;;18.30;24.20;;;;;;4939173;29;19926;-77
2022/03/26 09:47:12;;;;;;;;;;;18.40;24.50;;;;;;4937760;29;20379;-78
2022/03/26 09:49:39;;;;;;;;;;;18.60;24.40;;;;;;4936213;29;19995;-77
2022/03/26 09:52:06;;;;;;;;;;;18.70;25.20;;;;;;4940732;29;19926;-80
2022/03/26 09:54:34;;;;;;;;;;;18.90;24.10;;;;;;4939753;29;19926;-82
2022/03/26 09:57:01;;;;;;;;;;;18.90;25.10;;;;;;4936010;29;19927;-80
2022/03/26 09:59:28;;;;;;;;;;;19.00;24.60;;;;;;4939207;29;19930;-82
2022/03/26 10:01:54;;;;;;;;;;;19.00;24.50;;;;;;4937391;28;19933;-79
2022/03/26 10:04:22;;;;;;;;;;;19.10;24.90;;;;;;4955410;28;19937;-82
2022/03/26 10:06:49;;;;;;;;;;;19.20;24.50;;;;;;4940233;28;20438;-80
2022/03/26 10:09:25;;;;;;;;;;;19.20;24.00;;;;;;4938234;29;20017;-78
2022/03/26 10:12:18;;;;;;;;;;;19.10;24.90;;;;;;4954226;28;19993;-78
2022/03/26 10:14:45;;;;;;;;;;;19.10;24.90;;;;;;4951826;28;19977;-80
2022/03/26 10:17:19;;;;;;;;;;;19.10;24.10;;;;;;4937791;29;20406;-77
2022/03/26 10:19:48;;;;;;;;;;;19.10;24.10;;;;;;4953119;29;19926;-77
2022/03/26 10:22:24;;;;;;;;;;;19.20;25.00;;;;;;4936764;29;20375;-80
2022/03/26 10:24:51;;;;;;;;;;;19.20;23.70;;;;;;4937030;29;19934;-76
2022/03/26 10:27:18;;;;;;;;;;;19.20;24.60;;;;;;4936597;29;19934;-81
2022/03/26 10:29:49;;;;;;;;;;;19.40;23.90;;;;;;4948120;29;19953;-76
2022/03/26 10:35:34;;;;;;;;;;;19.40;23.80;;;;;;4952747;29;19942;-77
2022/03/26 10:38:02;;;;;;;;;;;19.50;24.50;;;;;;4935779;29;20367;-77
2022/03/26 10:40:30;;;;;;;;;;;19.60;24.60;;;;;;4958253;28;20449;-80
2022/03/26 10:42:59;;;;;;;;;;;19.80;24.60;;;;;;4933943;29;19927;-80
2022/03/26 10:45:27;;;;;;;;;;;19.80;24.60;;;;;;4928171;29;19927;-78
2022/03/26 10:47:54;;;;;;;;;;;19.80;23.70;;;;;;4939243;29;19930;-77
2022/03/26 10:50:22;;;;;;;;;;;19.90;24.20;;;;;;4940664;29;19930;-77
2022/03/26 10:52:55;;;;;;;;;;;20.00;23.50;;;;;;4937397;29;19927;-79
2022/03/26 10:55:22;;;;;;;;;;;19.90;24.30;;;;;;4937530;29;19930;-80
2022/03/26 10:57:50;;;;;;;;;;;20.00;24.70;;;;;;4958209;29;20020;-79
2022/03/26 11:00:18;;;;;;;;;;;20.10;25.70;;;;;;4939492;28;20071;-78
2022/03/26 11:02:45;;;;;;;;;;;20.20;24.60;;;;;;4961487;29;20286;-79
2022/03/26 11:05:12;;;;;;;;;;;20.40;24.50;;;;;;4937837;29;19991;-79
2022/03/26 11:07:42;;;;;;;;;;;20.30;22.80;;;;;;4943317;29;19982;-80
2022/03/26 11:10:11;;;;;;;;;;;20.40;24.90;;;;;;4937627;29;20398;-78
2022/03/26 11:12:42;;;;;;;;;;;20.50;24.50;;;;;;4940186;29;20294;-78
2022/03/26 12:03:21;;;;;;;9.82;8.10;;;22.10;21.10;;;;;;6176762;22;2080906;-79
2022/03/26 12:08:40;;;;;;;11.48;10.20;;;22.20;20.90;;;;;;6251478;23;20365;-81
2022/03/26 12:11:07;;;;;;;11.13;9.37;;;22.00;20.10;;;;;;6255009;23;20368;-81
2022/03/26 12:13:34;;;;;;;11.18;8.82;;;22.30;21.40;;;;;;6225919;23;20380;-79
2022/03/26 12:16:03;;;;;;;10.63;8.98;;;22.40;20.40;;;;;;6227339;23;20356;-83
2022/03/26 12:18:32;;;;;;;10.40;9.35;;;22.20;20.40;;;;;;6223058;23;20357;-79
2022/03/26 12:21:07;;;;;;;10.40;9.00;;;22.10;20.00;;;;;;6226422;23;20381;-80
2022/03/26 12:23:35;;;;;;;9.73;8.73;;;22.10;19.70;;;;;;6252655;23;20384;-80
2022/03/26 12:26:07;;;;;;;11.02;9.07;;;22.30;20.50;;;;;;6226681;23;20828;-82
2022/03/26 12:28:36;;;;;;;10.18;8.90;;;22.50;19.80;;;;;;6223414;23;20352;-81
2022/03/26 12:31:14;;;;;;;10.38;9.27;;;22.70;19.70;;;;;;6251719;23;20831;-81
2022/03/26 12:33:43;;;;;;;11.05;9.63;;;22.70;20.10;;;;;;6218220;23;20373;-79
2022/03/26 12:36:13;;;;;;;10.10;9.00;;;22.70;19.40;;;;;;6219869;23;20439;-82
2022/03/26 12:38:53;;;;;;;10.50;9.20;;;22.50;19.50;;;;;;6220911;23;20356;-81
2022/03/26 12:41:21;;;;;;;10.45;9.35;;;22.50;20.20;;;;;;6218449;23;21029;-80
2022/03/26 12:43:59;;;;;;;12.17;9.37;;;22.80;19.90;;;;;;6219946;23;20373;-79
2022/03/26 12:46:34;;;;;;;9.85;8.95;;;22.90;18.70;;;;;;6220283;23;20448;-79
2022/03/26 12:49:19;;;;;;;10.93;9.52;;;23.10;19.00;;;;;;6220572;23;20403;-80
2022/03/26 12:51:54;;;;;;;13.55;10.20;;;22.80;18.60;;;;;;6219017;23;20682;-79
2022/03/26 12:54:22;;;;;;;13.40;9.70;;;22.80;19.70;;;;;;6218915;23;20380;-80
2022/03/26 12:56:50;;;;;;;10.50;9.35;;;22.70;19.70;;;;;;6219959;23;20366;-81
2022/03/26 12:59:18;;;;;;;14.50;10.93;;;22.80;20.30;;;;;;6219344;23;20710;-82
2022/03/26 13:01:46;;;;;;;11.70;9.85;;;22.80;19.50;;;;;;6221563;23;20376;-76
2022/03/26 13:04:17;;;;;;;14.33;10.73;;;22.90;19.00;;;;;;6221935;23;20376;-81
2022/03/26 13:06:44;;;;;;;12.00;9.23;;;22.90;19.40;;;;;;6222317;23;20373;-81
2022/03/26 13:09:11;;;;;;;11.95;9.32;;;23.10;19.30;;;;;;6222375;23;20039;-81
2022/03/26 13:11:38;;;;;;;11.70;9.13;;;23.10;19.20;;;;;;6219373;23;20028;-81
2022/03/26 13:14:06;;;;;;;11.10;9.25;;;23.20;19.20;;;;;;6220770;23;20026;-82
2022/03/26 13:16:34;;;;;;;11.38;9.35;;;23.30;19.40;;;;;;6219918;23;20448;-81
2022/03/26 13:19:09;;;;;;;12.32;9.95;;;23.40;19.40;;;;;;6220255;23;20399;-80
2022/03/26 13:21:42;;;;;;;;;;;23.20;18.20;;;;;;6221108;23;20012;-81
2022/03/26 13:24:13;;;;;;;9.55;8.38;;;22.90;18.00;;;;;;6219692;23;19969;-82
2022/03/26 13:26:55;;;;;;;16.55;9.35;;;23.20;20.00;;;;;;6221301;23;20523;-80
2022/03/26 13:29:24;;;;;;;13.85;8.82;;;23.30;19.20;;;;;;6221652;23;20326;-77
2022/03/26 13:31:54;;;;;;;10.30;8.25;;;23.20;19.00;;;;;;6222392;23;20034;-81
2022/03/26 13:34:47;;;;;;;9.80;7.95;;;23.40;19.20;;;;;;6221068;23;20024;-81
2022/03/26 13:37:19;;;;;;;11.73;9.18;;;23.30;18.90;;;;;;6250339;23;20031;-79
2022/03/26 13:39:54;;;;;;;11.60;9.20;;;23.30;18.50;;;;;;6219565;23;20020;-81
2022/03/26 13:42:22;;;;;;;10.00;9.00;;;22.90;18.30;;;;;;6247786;23;20388;-80
2022/03/26 13:44:55;;;;;;;12.88;9.27;;;22.80;18.70;;;;;;6220285;23;20020;-80
2022/03/26 13:47:33;;;;;;;9.95;8.27;;;22.80;19.30;;;;;;6220986;23;20076;-81
2022/03/26 13:50:12;;;;;;;11.13;9.18;;;23.00;19.30;;;;;;6221669;23;20021;-82
2022/03/26 13:52:42;;;;;;;12.60;8.70;;;23.20;18.70;;;;;;6218527;23;20023;-80
2022/03/26 13:55:26;;;;;;;12.55;9.70;;;23.40;18.80;;;;;;6219381;23;20020;-82
2022/03/26 13:57:56;;;;;;;11.20;9.00;;;23.40;18.40;;;;;;6245415;23;20368;-80
2022/03/26 14:00:25;;;;;;;;;;;23.50;18.50;;;;;;6223452;23;20543;-79
2022/03/26 14:02:52;;;;;;;;;;;23.20;18.10;;;;;;6220486;23;19974;-79
2022/03/26 14:05:26;;;;;;;;;;;23.20;18.70;;;;;;6222247;23;19986;-81
2022/03/26 14:07:58;;;;;;;;;;;23.20;18.30;;;;;;6221358;23;19919;-80
2022/03/26 14:10:42;;;;;;;12.07;9.93;;;23.20;18.50;;;;;;6220213;23;19923;-81
2022/03/26 14:13:15;;;;;;;12.20;9.52;;;23.00;18.80;;;;;;6222825;23;20016;-81
2022/03/26 14:15:44;;;;;;;9.98;8.82;;;23.30;18.60;;;;;;6219075;23;20023;-80
2022/03/26 14:18:12;;;;;;;11.52;8.52;;;23.40;18.40;;;;;;6221162;23;20024;-82
2022/03/26 14:20:39;;;;;;;13.85;9.63;;;23.40;17.80;;;;;;6218167;23;20022;-81
2022/03/26 14:23:07;;;;;;;9.27;8.18;;;23.60;18.00;;;;;;6220424;23;20375;-79
2022/03/26 14:25:36;;;;;;;12.50;9.13;;;23.80;18.90;;;;;;6220524;23;20016;-80
2022/03/26 14:28:07;;;;;;;10.98;9.10;;;23.80;18.40;;;;;;6219956;23;20031;-79
2022/03/26 14:30:34;;;;;;;11.88;9.25;;;23.80;18.40;;;;;;6221380;23;20444;-80
2022/03/26 14:33:01;;;;;;;14.45;9.45;;;23.60;17.90;;;;;;6218435;23;20379;-80
2022/03/26 14:35:30;;;;;;;10.07;9.00;;;23.40;18.00;;;;;;6220578;23;20024;-80
2022/03/26 14:37:58;;;;;;;14.95;9.05;;;23.60;18.40;;;;;;6219900;23;20020;-80
2022/03/26 14:40:26;;;;;;;11.32;8.73;;;23.10;18.20;;;;;;6221016;23;20055;-79
2022/03/26 14:42:54;;;;;;;11.20;9.00;;;23.00;18.20;;;;;;6246304;23;20027;-79
2022/03/26 14:45:21;;;;;;;16.02;9.40;;;23.10;19.00;;;;;;6219318;23;20028;-80
2022/03/26 14:47:48;;;;;;;11.27;9.27;;;23.10;18.60;;;;;;6219688;23;20023;-79
2022/03/26 14:50:15;;;;;;;13.73;8.68;;;23.00;18.30;;;;;;6247170;23;20384;-77
2022/03/26 14:52:42;;;;;;;11.05;8.93;;;22.80;18.30;;;;;;6246058;23;20024;-80
2022/03/26 14:55:11;;;;;;;13.77;8.90;;;22.80;18.30;;;;;;6218812;23;20024;-80
2022/03/26 14:57:39;;;;;;;14.35;8.95;;;23.10;19.20;;;;;;6219742;23;20060;-81
2022/03/26 15:00:06;;;;;;;;;;;23.40;19.00;;;;;;6219548;23;20023;-80